Saint Louis, Texas
Current Conditions -  °F | °C
As of 2:53 AM on Friday 19 Dec 2014 (Local Time) from KTYR Reporting Station
Haze Haze  
Wind Chill: 44°   Ceiling: 200
Heat Index: 48°   Visibility: 1.5mi
Dew Point: 46°   Wind: 9mph
Humidity: 93%   Direction: 30°NNE
Pressure: 30.12"   Gusts: NA
Location:  32.3248°N, 95.3025°W
Report Text: KTYR 190853Z 03008KT 1 1/2SM BR OVC002 09/08 A3012 RMK AO2 SLP197 T00890078 58007 $
Loading
Personal Weather Stations






























Interactive Weather Map New forecast layout! Learn more

10-Day Weather Forecast

Advertisements
Track Severe Weather on mobile